x

8447387 - Borden Flats Light At Fall River, Ma (bltm3) Weather Station

8:54 - Wed 26th Nov 2014 All times are EST. -5 hours from GMT.

  • Wind
    23mph, 33mph gusts
  • Luft Temp 43°f
  • Sea Pressure 1002.5mb
  • 8447387 - Borden Flats Light At Fall River, Ma
  • 8447387 - Borden Flats Light At Fall River, Ma

More Historic Weather Station data

Upgrade to MSW Pro to gain access to the past 30 days of data for over 8000 Wavebouys and Weather Stations around the globe.

Join Pro

Comparision Forecast

View Surf forecast
   
Mi 11/26 8:54 23 33 mph 1002.5mb 43f
8:48 24 36 mph 1002.2mb 43f
8:42 24 32 mph 1002.4mb 43f
8:36 22 28 mph 1002.9mb 43f
8:30 24 32 mph 1003.3mb 43f
8:24 25 38 mph 1003mb 43f
8:18 21 28 mph 1003.6mb 43f
8:12 24 32 mph 1003.2mb 44f
8:06 25 31 mph 1003.1mb 43f
8:00 29 36 mph 1003mb 43f
7:54 21 25 mph 1003.4mb 43f
7:48 28 38 mph 1003.3mb 43f
7:42 24 32 mph 1003.9mb 43f
7:36 21 31 mph 1004.1mb 43f
7:30 28 36 mph 1003.4mb 43f
7:24 26 34 mph 1003mb 43f
7:18 26 36 mph 1003.4mb 43f
7:12 29 40 mph 1003.6mb 43f
7:06 24 30 mph 1003.5mb 43f
7:00 23 29 mph 1003.8mb 43f
6:54 26 33 mph 1003.9mb 43f
6:48 26 34 mph 1003.9mb 42f
6:42 29 37 mph 1004.3mb 42f
6:36 28 33 mph 1004.4mb 42f
6:30 25 30 mph 1004.9mb 42f
6:24 24 30 mph 1005.5mb 42f
6:18 24 31 mph 1005.3mb 42f
6:12 24 31 mph 1005.6mb 42f
6:06 25 31 mph 1006.1mb 42f
6:00 21 28 mph 1007mb 42f
5:54 22 30 mph 1007.1mb 42f
5:48 22 30 mph 1006.8mb 42f
5:42 25 32 mph 1006.1mb 42f
5:36 24 36 mph 1006.6mb 41f
5:30 23 29 mph 1007.1mb 41f
5:24 22 26 mph 1007.6mb 41f
5:18 22 28 mph 1007.9mb 41f
5:12 17 24 mph 1008.7mb 40f
5:06 15 21 mph 1009.2mb 40f
5:00 21 30 mph 1008.7mb 40f
4:54 22 26 mph 1008.9mb 40f
4:48 18 24 mph 1009.3mb 40f
4:42 23 30 mph 1008.4mb 40f
4:36 20 25 mph 1009.3mb 39f
4:30 23 30 mph 1009.2mb 39f
4:24 23 29 mph 1009.4mb 39f
4:18 21 28 mph 1010.1mb 39f
4:12 20 24 mph 1010.4mb 39f
4:06 17 23 mph 1010.6mb 38f
4:00 18 23 mph 1010.6mb 38f
3:54 18 30 mph 1011.2mb 38f
3:48 17 24 mph 1011.9mb 38f
3:42 25 31 mph 1010.2mb 38f
3:36 18 26 mph 1011.1mb 38f
3:30 22 26 mph 1011.1mb 38f
3:24 20 26 mph 1012.2mb 38f
3:18 23 32 mph 1011.7mb 38f
3:12 21 25 mph 1012.3mb 38f
3:06 18 24 mph 1012.9mb 38f
3:00 21 28 mph 1012.9mb 38f
2:54 17 26 mph 1013.8mb 38f
2:48 16 21 mph 1013.8mb 38f
2:42 17 23 mph 1013.7mb 38f
2:36 23 29 mph 1013.2mb 38f
2:30 20 28 mph 1013.8mb 39f
2:24 20 26 mph 1014.2mb 38f
2:18 11 16 mph 1015.9mb 38f
2:12 13 15 mph 1015.4mb 38f
2:06 15 20 mph 1014.9mb 38f
2:00 18 26 mph 1014.7mb 38f
1:54 13 18 mph 1015.2mb 38f
1:48 18 24 mph 1015.4mb 38f
1:42 16 22 mph 1015.4mb 38f
1:36 16 20 mph 1015mb 38f
1:30 15 21 mph 1015.7mb 38f
1:24 18 24 mph 1015.1mb 38f
1:18 21 26 mph 1015mb 38f
1:12 17 22 mph 1014.9mb 38f
1:06 21 28 mph 1014.8mb 38f
1:00 18 23 mph 1015.2mb 38f
12:54 18 23 mph 1015.7mb 39f
12:48 21 23 mph 1015.7mb 39f
12:42 23 29 mph 1015.3mb 39f
12:36 17 22 mph 1016.5mb 39f
12:30 18 24 mph 1017.1mb 39f
12:24 15 21 mph 1017.3mb 40f
12:18 15 21 mph 1018.3mb 40f
12:12 15 20 mph 1017.8mb 40f
12:06 18 24 mph 1017.8mb 40f
12:00 14 17 mph 1018.1mb 41f
11:54 13 16 mph 1018.1mb 41f
11:48 13 17 mph 1018mb 41f
11:42 13 16 mph 1018.1mb 41f
11:36 10 14 mph 1018.2mb 41f
11:30 13 14 mph 1018.2mb 41f
11:24 13 17 mph 1018.5mb 41f
11:18 14 17 mph 1018.4mb 41f
11:12 11 14 mph 1018.9mb 41f
11:06 11 16 mph 1019.2mb 41f
11:00 13 16 mph 1019.4mb 41f
10:54 11 14 mph 1020mb 41f
10:48 13 18 mph 1019.4mb 41f
10:42 11 14 mph 1019.7mb 41f
10:36 13 15 mph 1019.6mb 41f
10:30 14 17 mph 1019.3mb 41f
10:24 15 20 mph 1019.6mb 41f
10:18 16 21 mph 1019.7mb 41f
10:12 14 17 mph 1019.7mb 41f
10:06 14 16 mph 1019.8mb 42f
10:00 13 15 mph 1019.8mb 42f
9:54 15 20 mph 1019.7mb 42f
9:48 15 20 mph 1020mb 42f
9:42 13 14 mph 1020.8mb 42f
9:36 9 11 mph 1021.3mb 42f
9:30 9 11 mph 1021.5mb 42f
9:24 13 16 mph 1020.9mb 42f
9:18 10 14 mph 1021.2mb 43f
9:12 14 16 mph 1021.1mb 44f
9:06 10 13 mph 1020.9mb 44f
9:00 7 10 mph 1021.6mb 44f
8:54 9 14 mph 1021.9mb 44f
8:48 8 10 mph 1021.8mb 45f
8:42 9 13 mph 1022mb 45f
8:36 8 11 mph 1021.9mb 46f
8:30 7 10 mph 1022mb 46f
8:24 7 9 mph 1021.6mb 46f
8:18 8 11 mph 1020.8mb 46f
8:12 10 14 mph 1020.8mb 46f
8:06 9 13 mph 1020.9mb 46f
8:00 8 11 mph 1020.5mb 46f
7:54 10 13 mph 1020.2mb 46f
7:48 8 10 mph 1020.5mb 46f
7:42 8 10 mph 1020.5mb 46f
7:36 8 11 mph 1020.3mb 46f
7:30 7 9 mph 1020.4mb 46f
7:24 7 8 mph 1020.4mb 46f
7:18 6 7 mph 1020.4mb 46f
7:12 6 8 mph 1020.5mb 47f
7:06 7 8 mph 1020.6mb 47f
7:00 8 10 mph 1020.7mb 47f
6:54 7 11 mph 1020.8mb 47f
6:48 9 14 mph 1020.6mb 47f
6:42 7 10 mph 1020.9mb 47f
6:36 8 10 mph 1020.8mb 47f
6:30 7 10 mph 1020.9mb 47f
6:24 7 8 mph 1020.9mb 47f
6:18 9 14 mph 1020.7mb 47f
6:12 9 13 mph 1020.6mb 47f
6:06 6 8 mph 1020.7mb 47f
6:00 5 7 mph 1020.8mb 47f
5:54 6 8 mph 1020.6mb 47f
5:48 6 8 mph 1020.4mb 47f
5:42 6 7 mph 1020.4mb 47f
5:36 8 9 mph 1020.3mb 47f
5:30 8 9 mph 1020.4mb 47f
5:24 7 8 mph 1020.4mb 47f
5:18 6 8 mph 1020.3mb 47f
5:12 5 6 mph 1020.6mb 47f
5:06 6 7 mph 1020.6mb 47f
5:00 5 6 mph 1021mb 47f
4:54 6 7 mph 1021.2mb 47f
4:48 3 5 mph 1021.3mb 47f
4:42 6 9 mph 1021.1mb 47f
4:36 5 7 mph 1021.4mb 47f
4:30 5 7 mph 1021.6mb 47f
4:24 5 7 mph 1021.9mb 47f
4:18 6 8 mph 1021.6mb 47f
4:12 1 5 mph 1022.1mb 47f
4:06 2 5 mph 1021.9mb 47f
4:00 3 8 mph 1021.9mb 47f
3:54 3 5 mph 1021.8mb 47f
3:48  -  2 mph 1022mb 48f
3:42 3 5 mph 1021.7mb 48f
3:36 3
mph
1021.9mb 48f
3:30 6 7 mph 1021.5mb 48f
3:24 3 5 mph 1021.6mb 48f
3:18 3 6 mph 1021mb 48f
3:12 3 6 mph 1021.2mb 48f
3:06 1 2 mph 1021.6mb 48f
3:00 3 5 mph 1021.8mb 48f
2:54 2 5 mph 1021.3mb 48f
2:48  -  1 mph 1021.4mb 48f
2:42 2 3 mph 1021.4mb 48f
2:36 3 5 mph 1021.2mb 49f
2:30 5 7 mph 1021.4mb 49f
2:24 3 6 mph 1021.5mb 48f
2:18 2 3 mph 1021.2mb 48f
2:12 2 3 mph 1021mb 48f
2:06 3 5 mph 1021.1mb 48f
2:00 2 3 mph 1020.9mb 48f
1:54 1 2 mph 1020.7mb 48f
1:48 3 5 mph 1020.8mb 49f
1:42 3 5 mph 1020.7mb 49f
1:36 3 6 mph 1020.6mb 48f
1:30 3 5 mph 1020.5mb 48f
1:24 3 5 mph 1020.6mb 48f
1:18 3 5 mph 1020.5mb 48f
1:12 3 5 mph 1020.3mb 48f
1:06 3
mph
1019.9mb 48f
1:00 3
mph
1019.9mb 48f
12:54 5
mph
1020mb 49f
12:48 6 7 mph 1020.2mb 49f
12:42 7
mph
1020.3mb 49f
12:36 7 8 mph 1020.6mb 49f
12:30 7 8 mph 1020.4mb 49f
12:24 8 9 mph 1020.2mb 49f
12:18 8 9 mph 1020.1mb 49f
12:12 8 9 mph 1020.1mb 49f
12:06 8 9 mph 1020mb 49f
12:00 7 9 mph 1019.9mb 48f
Di 11/25 11:54 7 8 mph 1020mb 49f
11:48 8 9 mph 1020mb 49f
11:42 7 8 mph 1020.2mb 49f
11:36 8
mph
1020.1mb 49f
11:30 8
mph
1019.8mb 49f
11:24 8
mph
1019.8mb 49f
11:18 7 8 mph 1019.5mb 49f
11:12 8 9 mph 1019.2mb 49f
11:06 8 9 mph 1019.3mb 49f
11:00 8 9 mph 1019.1mb 49f
10:54 8 9 mph 1019.1mb 49f
10:48 8 9 mph 1019.2mb 49f
10:42 8
mph
1019.2mb 50f
10:36 7 9 mph 1019.4mb 50f
10:30 7 8 mph 1019.4mb 49f
10:24 8 9 mph 1019.1mb 49f
10:18 8 9 mph 1018.9mb 49f
10:12 9 10 mph 1018.8mb 49f
10:06 10 11 mph 1018.8mb 49f
10:00 10 11 mph 1018.5mb 49f
9:54 9 10 mph 1018.5mb 49f
9:48 9
mph
1018.6mb 49f
9:42 8 9 mph 1018.4mb 49f
9:36 8
mph
1018.3mb 49f
9:30 9 10 mph 1018.4mb 49f
9:24 10 11 mph 1018.4mb 49f
9:18 10 11 mph 1018.3mb 50f
9:12 11
mph
1018.1mb 50f
9:06 11 13 mph 1018.1mb 50f
9:00 10
mph
1017.8mb 51f
8:54 9 10 mph 1017.9mb 51f
8:48 9 10 mph 1018mb 51f
8:42 9
mph
1017.9mb 51f
8:36 8 9 mph 1017.7mb 50f
8:30 10 11 mph 1018mb 50f
8:24 11 13 mph 1018mb 50f
8:18 10 13 mph 1017.7mb 51f
8:12 9 10 mph 1017.6mb 50f
8:06 8 9 mph 1017.4mb 49f
8:00 7 8 mph 1017.2mb 49f
7:54 6 7 mph 1016.9mb 50f
7:48 7 8 mph 1016.9mb 50f
7:42 7 8 mph 1016.7mb 50f
7:36 8
mph
1016.7mb 50f
7:30 7 8 mph 1016.4mb 51f
7:24 8 9 mph 1016.2mb 51f
7:18 10 11 mph 1016.4mb 51f
7:12 10 11 mph 1016.4mb 51f
7:06 11 13 mph 1016.3mb 51f
7:00 11 14 mph 1016.2mb 52f
6:54 14 15 mph 1015.9mb 52f
6:48 13 15 mph 1015.9mb 52f
6:42 14 16 mph 1015.9mb 52f
6:36 13 16 mph 1015.7mb 51f
6:30 13 15 mph 1015.6mb 50f
6:24 14 15 mph 1015.7mb 50f
6:18 13 15 mph 1015.2mb 51f
6:12 14 15 mph 1015.1mb 51f
6:06 15 16 mph 1015.3mb 50f
6:00 14 15 mph 1015.1mb 50f
5:54 13 14 mph 1015.1mb 51f
5:48 14 15 mph 1015.3mb 51f
5:42 15 16 mph 1015.4mb 51f
5:36 14 15 mph 1015.2mb 51f
5:30 13 14 mph 1015mb 51f
5:24 13 14 mph 1014.7mb 52f
5:18 13 14 mph 1014.7mb 52f
5:12 13 15 mph 1014.7mb 52f
5:06 14 15 mph 1014.4mb 55f
5:00 14 16 mph 1014.3mb 55f
4:54 13 15 mph 1014.4mb 55f
4:48 11 14 mph 1014.3mb 56f
4:42 11 14 mph 1014.3mb 55f
4:36 10 14 mph 1014.2mb 52f
4:30 10 13 mph 1014.1mb 53f
4:24 11 13 mph 1013.9mb 54f
4:18 8 10 mph 1013.9mb 56f
4:12 10 13 mph 1013.6mb 55f
4:06 14
mph
1013.5mb 54f
4:00 11 14 mph 1013.1mb 54f
3:54 13 15 mph 1013.3mb 54f
3:48 14
mph
1013.4mb 55f
3:42 14
mph
1013.2mb 55f
3:36 14 15 mph 1013.3mb 55f
3:30 11 14 mph 1013.1mb 56f
3:24 11 14 mph 1012.8mb 54f
3:18 15
mph
1013.1mb 54f
3:12 16
mph
1013.2mb 55f
3:06 14 15 mph 1012.8mb 55f
3:00 15
mph
1013mb 54f
2:54 15 16 mph 1013.2mb 54f
2:48 15 16 mph 1013mb 54f
2:42 15
mph
1012.9mb 55f
2:36 14 15 mph 1012.8mb 55f
2:30 14 15 mph 1012.6mb 55f
2:24 14 15 mph 1012.9mb 55f
2:18 13 14 mph 1012.7mb 55f
2:12 13 14 mph 1012.8mb 55f
2:06 13 14 mph 1012.7mb 56f
2:00 14 15 mph 1012.7mb 56f
1:54 14
mph
1012.7mb 56f
1:48 13 15 mph 1012.5mb 56f
1:42 14 17 mph 1012.7mb 56f
1:36 14 16 mph 1012.7mb 56f
1:30 14 15 mph 1012.5mb 56f
1:24 11 14 mph 1012.3mb 55f
1:18 11 14 mph 1012.5mb 55f
1:12 11 16 mph 1012.5mb 55f
1:06 13 15 mph 1012.5mb 54f
1:00 13 16 mph 1012.5mb 54f
12:54 14 18 mph 1012.4mb 54f
12:48 13 14 mph 1012.3mb 54f
12:42 11 16 mph 1012.3mb 54f
12:36 14 16 mph 1012.4mb 56f
12:30 16 18 mph 1012.5mb 57f
12:24 14 18 mph 1012.5mb 56f
12:18 15 16 mph 1012.6mb 57f
12:12 14 17 mph 1012.8mb 57f
12:06 18 22 mph 1012.9mb 57f
12:00 20 22 mph 1012.8mb 57f
11:54 22 26 mph 1012.7mb 59f
11:48 20 25 mph 1012.6mb 58f
11:42 18 22 mph 1012.8mb 58f
11:36 17 22 mph 1012.7mb 58f
11:30 15 17 mph 1012.7mb 58f
11:24 18 21 mph 1012.7mb 58f
11:18 17 21 mph 1012.5mb 58f
11:12 21 25 mph 1012.5mb 58f
11:06 17 22 mph 1012.6mb 56f
11:00 14 15 mph 1012.5mb 55f
10:54 13 15 mph 1012.4mb 55f
10:48 14 15 mph 1012.4mb 55f
10:42 14
mph
1012.1mb 55f
10:36 14
mph
1012.1mb 55f
10:30 14 15 mph 1012.1mb 55f
10:24 13 14 mph 1012mb 55f
10:18 13 14 mph 1012mb 55f
10:12 13 14 mph 1012mb 55f
10:06 13 14 mph 1012mb 55f
10:00 13 14 mph 1012.1mb 57f
9:54 13 15 mph 1012.2mb 59f
9:48 13 15 mph 1012.3mb 57f
9:42 13 14 mph 1012.3mb 53f
9:36 14
mph
1012.3mb 53f
9:30 13 15 mph 1012.1mb 54f
9:24 14 15 mph 1012.1mb 55f
9:18 14 15 mph - -
9:12 13 15 mph - -
9:06 11 13 mph - -
9:00 11 13 mph 1011.8mb 52f
8:54 11 13 mph 1011.6mb 52f
8:48 10 11 mph 1011.5mb 52f
8:42 10 11 mph 1011.4mb 55f
8:36 11 15 mph 1011.2mb 57f
8:30 11 15 mph 1011.1mb 57f
8:24 11 14 mph 1011.1mb 57f
8:18 13 16 mph 1011.4mb 57f
8:12 10 13 mph 1011.5mb 55f
8:06 10 13 mph 1011.4mb 55f
8:00 9 13 mph 1011.6mb 53f
7:54 8 11 mph 1011.5mb 52f
7:48 8 10 mph 1011.2mb 51f
7:42 7 9 mph 1011.1mb 51f
7:36 7 9 mph 1011mb 51f
7:30 7 9 mph 1010.9mb 51f
7:24 8 10 mph 1010.9mb 52f
7:18 7 8 mph 1010.8mb 52f
7:12 8 10 mph 1010.8mb 52f
7:06 8 9 mph 1010.8mb 52f
7:00 7 8 mph 1010.7mb 51f
6:54 6 7 mph 1010.3mb 51f
6:48 6 8 mph 1010.2mb 53f
6:42 7 10 mph 1010.3mb 52f
6:36 7 11 mph 1010.3mb 53f
6:30 7 10 mph 1010.4mb 52f
6:24 6 8 mph 1010.4mb 53f
6:18 8 11 mph 1010.3mb 55f
6:12 8 11 mph 1010.2mb 54f
6:06 8 9 mph 1010.3mb 53f
6:00 9 11 mph 1010.1mb 53f
5:54 10 11 mph 1010.1mb 53f
5:48 9 10 mph 1010mb 53f
5:42 7 10 mph 1009.8mb 53f
5:36 7 11 mph 1009.7mb 53f
5:30 9 14 mph 1009.7mb 55f
5:24 9 13 mph 1009.6mb 54f
5:18 11 15 mph 1009.6mb 55f
5:12 8 11 mph 1009.7mb 53f
5:06 11 14 mph 1009.4mb 56f
5:00 13 15 mph 1009.2mb 58f
4:54 13 18 mph 1008.9mb 58f
4:48 14 17 mph 1008.8mb 58f
4:42 14 16 mph 1008.6mb 57f
4:36 13 17 mph 1008.6mb 57f
4:30 11 15 mph 1008.5mb 57f
4:24 13 16 mph 1008.5mb 57f
4:18 11 14 mph 1008.4mb 57f
4:12 14 18 mph 1008.5mb 58f
4:06 17 23 mph 1008.5mb 58f
4:00 14 17 mph 1008.3mb 58f
3:54 13 16 mph 1008mb 57f
3:48 14 16 mph 1007.8mb 58f
3:42 11 14 mph 1007.7mb 57f
3:36 14 17 mph 1007.8mb 57f
3:30 14 16 mph 1007.7mb 58f
3:24 13 17 mph 1007.7mb 58f
3:18 14 17 mph 1008.1mb 57f
3:12 15 20 mph 1007.8mb 57f
3:06 15 18 mph 1007.4mb 57f
3:00 15 20 mph 1007.5mb 57f
2:54 18 23 mph 1007.5mb 57f
2:48 18 24 mph 1007.6mb 57f
2:42 17 22 mph 1007.6mb 58f
2:36 18 23 mph 1007.4mb 58f
2:30 16 21 mph 1007.5mb 58f
2:24 17 24 mph 1007.6mb 58f
2:18 17 22 mph 1007.7mb 58f
2:12 16 23 mph 1007.7mb 58f
2:06 18 23 mph 1007.6mb 58f
2:00 17 22 mph 1007.3mb 58f
1:54 17 22 mph 1007.3mb 58f
1:48 18 22 mph 1007.4mb 58f
1:42 20 24 mph 1007.4mb 58f
1:36 20 28 mph 1007.4mb 56f
1:30 21 25 mph 1007.3mb 57f
1:24 20 25 mph 1007.2mb 58f
1:18 18 22 mph 1007.2mb 58f
1:12 20 29 mph 1007.1mb 59f
1:06 21 25 mph 1007mb 58f
1:00 21 25 mph 1007mb 59f
12:54 17 22 mph 1006.9mb 58f
12:48 20 26 mph 1006.9mb 58f
12:42 20 25 mph 1006.8mb 59f
12:36 17 23 mph 1006.6mb 59f
12:30 18 23 mph 1006.7mb 58f
12:24 17 23 mph 1006.7mb 59f
12:18 17 23 mph 1006.6mb 59f
12:12 17 23 mph 1006.5mb 59f
12:06 18 24 mph 1006.6mb 59f
12:00 17 24 mph 1006.7mb 59f
Mo 11/24 11:54 16 21 mph 1006.5mb 59f
11:48 15 18 mph 1006.3mb 59f
11:42 16 20 mph 1006.2mb 59f
11:36 16 21 mph 1006.2mb 58f
11:30 16 20 mph 1006.3mb 58f
11:24 16 21 mph 1006.3mb 58f
11:18 16 22 mph 1006.3mb 58f
11:12 16 22 mph 1006.3mb 59f
11:06 17 21 mph 1006.2mb 59f
11:00 18 25 mph 1006.3mb 59f
10:54 18 22 mph 1006.4mb 59f
10:48 20 24 mph 1006.3mb 59f
10:42 17 22 mph 1006.3mb 59f
10:36 18 23 mph 1006.2mb 59f
10:30 20 26 mph 1006.2mb 59f
10:24 21 26 mph 1006.1mb 59f
10:18 17 24 mph 1006.1mb 58f
10:12 20 26 mph 1006mb 59f
10:06 18 24 mph 1006.1mb 59f
10:00 20 26 mph 1006.1mb 59f
9:54 18 22 mph 1006.1mb 58f
9:48 20 24 mph 1006.1mb 58f
9:42 21 25 mph 1006mb 58f
9:36 18 23 mph 1006mb 59f
9:30 18 25 mph 1006.1mb 59f
9:24 21 25 mph 1006.1mb 59f
9:18 21 26 mph 1006mb 59f
9:12 21 25 mph 1005.9mb 59f
9:06 21 25 mph 1005.8mb 58f
9:00 22 26 mph 1005.8mb 58f
8:54 22 26 mph 1005.8mb 58f
8:48 22 25 mph 1005.8mb 57f
8:42 21 25 mph 1005.8mb 57f
8:36 22 25 mph 1005.8mb 57f
8:30 22 26 mph 1005.8mb 57f
8:24 23 28 mph 1005.7mb 58f
8:18 24 29 mph 1005.7mb 57f
8:12 24 29 mph 1005.5mb 57f
8:06 23 26 mph 1005.4mb 56f
8:00 25 29 mph 1005.3mb 56f
7:54 25 29 mph 1005.4mb 57f
7:48 28 31 mph 1005.4mb 57f
7:42 28 31 mph 1005.3mb 58f
7:36 28 33 mph 1005.2mb 58f
7:30 29 36 mph 1005.2mb 58f
7:24 29 34 mph 1005.2mb 58f
7:18 28 33 mph 1005.2mb 58f
7:12 26 33 mph 1005.2mb 59f
7:06 30 37 mph 1005.1mb 58f
7:00 29 34 mph 1005.2mb 57f
6:54 28 32 mph 1005.2mb 57f
6:48 29 36 mph 1005.1mb 58f
6:42 29 37 mph 1005mb 58f
6:36 28 38 mph 1004.9mb 59f
6:30 26 36 mph 1004.8mb 58f
6:24 26 34 mph 1004.7mb 59f
6:18 25 33 mph 1004.7mb 59f
6:12 25 33 mph 1004.5mb 59f
6:06 26 38 mph 1004.4mb 60f
6:00 28 37 mph 1004.2mb 60f
5:54 26 36 mph 1004.3mb 60f
5:48 26 36 mph 1004.4mb 60f
5:42 26 34 mph 1004.3mb 59f
5:36 29 37 mph 1004.3mb 60f
5:30 28 36 mph 1004.4mb 60f
5:24 25 32 mph 1004.4mb 60f
5:18 30 37 mph 1004.2mb 59f
5:12 26 32 mph 1004.2mb 59f
5:06 25 31 mph 1004.1mb 60f
5:00 26 32 mph 1004.1mb 60f
4:54 28 36 mph 1004mb 60f
4:48 26 33 mph 1003.9mb 61f
4:42 26 31 mph 1003.9mb 61f
4:36 31 44 mph 1003.6mb 62f
4:30 29 39 mph 1003.7mb 62f
4:24 29 38 mph 1003.7mb 62f
4:18 24 32 mph 1003.7mb 61f
4:12 28 36 mph 1003.6mb 62f
4:06 24 33 mph 1003.6mb 62f
4:00 24 37 mph 1003.5mb 62f
3:54 25 33 mph 1003.6mb 62f
3:48 25 32 mph 1003.5mb 62f
3:42 29 37 mph 1003.3mb 62f
3:36 24 31 mph 1003.4mb 63f
3:30 28 36 mph 1003.5mb 63f
3:24 28 38 mph 1003.4mb 63f
3:18 25 37 mph 1003.4mb 63f
3:12 25 36 mph 1003.5mb 63f
3:06 21 30 mph 1003.7mb 63f
3:00 28 36 mph 1003.7mb 63f
2:54 26 38 mph 1003.8mb 63f
2:48 26 38 mph 1003.8mb 63f
2:42 24 30 mph 1003.9mb 63f
2:36 29 39 mph 1003.8mb 63f
2:30 29 38 mph 1003.7mb 63f
2:24 28 36 mph 1003.7mb 64f
2:18 28 38 mph 1003.8mb 64f
2:12 29 46 mph 1003.9mb 64f
2:06 28 37 mph 1004mb 64f
2:00 28 39 mph 1003.9mb 64f
1:54 26 38 mph 1004.1mb 64f
1:48 29 39 mph 1004mb 64f
1:42 31 44 mph 1004mb 64f
1:36 31 43 mph 1004.1mb 64f
1:30 29 37 mph 1004.1mb 65f
1:24 31 44 mph 1004.1mb 64f
1:18 30 45 mph 1004.2mb 64f
1:12 30 38 mph 1004.3mb 64f
1:06 28 34 mph 1004.4mb 64f
1:00 25 34 mph 1004.6mb 64f
12:54 29 37 mph 1004.5mb 64f
12:48 30 44 mph 1004.6mb 64f
12:42 28 38 mph 1004.7mb 64f
12:36 30 37 mph 1004.7mb 64f
12:30 30 44 mph 1004.7mb 64f
12:24 29 39 mph 1004.7mb 64f
12:18 24 37 mph 1004.9mb 64f
12:12 26 38 mph 1005mb 64f
12:06 28 41 mph 1005.1mb 64f
12:00 28 39 mph 1005.2mb 64f
11:54 31 41 mph 1005.3mb 64f
11:48 28 37 mph 1005.2mb 63f
11:42 29 40 mph 1005.3mb 63f
11:36 25 41 mph 1005.3mb 62f
11:30 26 44 mph 1005.3mb 63f
11:24 29 40 mph 1005.4mb 63f
11:18 32 46 mph 1005.4mb 64f
11:12 30 44 mph 1005.4mb 64f
11:06 29 44 mph 1005.5mb 64f
11:00 31 51 mph 1005.3mb 64f
10:54 26 37 mph 1005.4mb 64f
10:48 30 43 mph 1005.4mb 64f
10:42 29 39 mph 1005.5mb 63f
10:36 26 38 mph 1005.7mb 63f
10:30 26 37 mph 1005.8mb 63f
10:24 24 34 mph 1005.9mb 62f
10:18 24 34 mph 1006.2mb 62f
10:12 25 39 mph 1006.3mb 62f
10:06 29 45 mph 1006.3mb 62f
10:00 22 32 mph 1006.5mb 62f
9:54 23 34 mph 1006.7mb 62f
9:48 25 36 mph 1006.7mb 61f
9:42 28 40 mph 1006.9mb 61f
9:36 23 29 mph 1007.1mb 61f
9:30 25 39 mph 1007mb 61f
9:24 29 43 mph 1007mb 61f
9:18 29 46 mph 1007mb 61f
9:12 28 43 mph 1007.2mb 61f
9:06 24 38 mph 1007.4mb 60f
9:00 24 37 mph 1007.5mb 60f
8:54 29 40 mph 1007.3mb 60f
8:48 24 36 mph 1007.7mb 60f
8:42 25 33 mph 1007.8mb 60f
8:36 29 41 mph 1007.7mb 60f
8:30 24 37 mph 1008.2mb 60f
8:24 22 30 mph 1008.4mb 60f
8:18 26 41 mph 1008.7mb 60f
8:12 25 41 mph 1008.8mb 60f
8:06 23 36 mph 1009mb 60f
8:00 26 39 mph 1009.1mb 60f
7:54 24 37 mph 1009.1mb 60f
7:48 24 32 mph 1009.2mb 60f
7:42 23 33 mph 1009.1mb 60f
7:36 29 41 mph 1008.6mb 60f
7:30 26 39 mph 1009.8mb 60f
7:24 23 33 mph 1010.3mb 60f
7:18 24 33 mph 1010.5mb 60f
7:12 20 32 mph 1011mb 59f
7:06 22 41 mph 1011.2mb 59f
7:00 25 38 mph 1011.1mb 59f
6:54 25 39 mph 1011.1mb 59f
6:48 23 31 mph 1011.3mb 59f
6:42 21 29 mph 1011.5mb 59f
6:36 20 31 mph 1011.5mb 59f
6:30 21 32 mph 1011.6mb 59f
6:24 21 31 mph 1011.8mb 60f
6:18 18 25 mph 1012mb 59f
6:12 16 28 mph 1012mb 59f
6:06 17 26 mph 1012mb 59f
6:00 17 26 mph 1012.2mb 59f
5:54 18 25 mph 1012.2mb 60f
5:48 22 33 mph 1012.2mb 60f
5:42 20 31 mph 1012.3mb 60f
5:36 17 24 mph 1012.3mb 60f
5:30 14 24 mph 1012.4mb 59f
5:24 16 26 mph 1012.3mb 59f
5:18 17 26 mph 1012.5mb 59f
5:12 16 21 mph 1012.7mb 59f
5:06 15 23 mph 1012.9mb 58f
5:00 13 18 mph 1012.9mb 58f
4:54 15 21 mph 1012.9mb 58f
4:48 16 23 mph 1012.9mb 57f
4:42 15 20 mph 1013.4mb 57f
4:36 13 18 mph 1013.8mb 57f
4:30 14 22 mph 1014mb 58f
4:24 15 24 mph 1014.3mb 58f
4:18 15 20 mph 1014.6mb 58f
4:12 15 23 mph 1014.6mb 58f
4:06 16 24 mph 1014.5mb 58f
4:00 15 21 mph 1014.6mb 58f
3:54 15 20 mph 1014.6mb 58f
3:48 14 21 mph 1014.7mb 57f
3:42 16 20 mph 1014.8mb 57f
3:36 14 22 mph 1014.8mb 55f
3:30 14 17 mph 1014.9mb 55f
3:24 14 17 mph 1015.3mb 54f
3:18 11 16 mph 1015.4mb 52f
3:12 11 16 mph 1015.5mb 51f
3:06 10 14 mph 1015.7mb 51f
3:00 11 14 mph 1015.8mb 51f
2:54 11 14 mph 1016mb 50f
2:48 11 15 mph 1016mb 50f
2:42 10 13 mph 1016.3mb 50f
2:36 10 14 mph 1016.4mb 50f
2:30 13 15 mph 1016.5mb 50f
2:24 14 16 mph 1016.5mb 49f
2:18 14 16 mph 1016.7mb 49f
2:12 13 16 mph 1016.9mb 49f
2:06 14 16 mph 1016.9mb 49f
2:00 14 16 mph 1017mb 49f
1:54 14 17 mph 1017.3mb 49f
1:48 13 15 mph 1017.3mb 49f
1:42 11 14 mph 1017.3mb 49f
1:36 13 14 mph 1017.2mb 49f
1:30 11 15 mph 1017.4mb 49f
1:24 11 14 mph 1017.5mb 49f
1:18 11 15 mph 1017.6mb 49f
1:12 10 13 mph 1017.5mb 49f
1:06 10 13 mph 1017.5mb 49f
1:00 10 13 mph 1017.7mb 49f
12:54 3 6 mph 1017.9mb 49f
12:48  -  3 mph 1018.1mb 49f
12:42 1 2 mph 1018.1mb 49f
12:36  -  1 mph 1018.3mb 49f
12:30 1 5 mph 1018.3mb 49f
12:24 2 5 mph 1018.4mb 49f
12:18  -  2 mph 1018.4mb 49f
12:12 3 6 mph 1018.4mb 49f
12:06 6 8 mph 1018.6mb 50f
12:00 5 6 mph 1018.6mb 49f
So 11/23 11:54 1 3 mph 1018.7mb 49f
11:48  -  2 mph 1018.9mb 49f
11:42 3 5 mph 1019mb 49f
11:36 5 6 mph 1019.1mb 50f
11:30 5 6 mph 1019.4mb 49f
11:24 2 5 mph 1019.5mb 49f
11:18 3 5 mph 1019.5mb 49f
11:12 2 3 mph 1019.6mb 50f
11:06 5 6 mph 1019.6mb 51f
11:00 6 7 mph 1019.6mb 51f
10:54 8 9 mph 1019.7mb 51f
10:48 9 11 mph 1019.7mb 51f
10:42 11 15 mph 1019.8mb 51f
10:36 11 14 mph 1019.9mb 51f
10:30 13 16 mph 1019.9mb 51f
10:24 13 15 mph 1020mb 51f
10:18 13 16 mph 1020mb 51f
10:12 10 14 mph 1020mb 51f
10:06 10 14 mph 1020mb 51f
10:00 10 15 mph 1020.1mb 51f
9:54 8 10 mph 1020mb 50f
9:48 6 9 mph 1020.1mb 50f
9:42 7 9 mph 1020.1mb 50f
9:36 7 10 mph 1020.1mb 50f
9:30 8 10 mph 1020.2mb 50f
9:24 7 10 mph 1020.4mb 49f
9:18 7 10 mph 1020.5mb 49f
9:12 6 9 mph 1020.5mb 49f
9:06 6 8 mph 1020.4mb 49f
9:00 7 9 mph 1020.6mb 49f
8:54 6 8 mph 1020.5mb 49f
8:48 6 7 mph 1020.5mb 49f
8:42 6 8 mph 1020.5mb 49f
8:36 7 9 mph 1020.6mb 49f
8:30 7 8 mph 1020.7mb 49f
8:24 9 13 mph 1020.7mb 49f
8:18 10 13 mph 1020.7mb 49f
8:12 9 11 mph 1020.6mb 49f
8:06 9 13 mph 1020.7mb 49f
8:00 9 11 mph 1020.6mb 49f
7:54 9 11 mph 1020.7mb 49f
7:48 9 11 mph 1020.8mb 49f
7:42 9 13 mph 1020.9mb 49f
7:36 8 10 mph 1020.8mb 49f
7:30 7 9 mph 1020.6mb 49f
7:24 7 9 mph 1020.5mb 49f
7:18 7 8 mph 1020.6mb 49f
7:12 3 5 mph 1020.6mb 49f
7:06 3 5 mph 1020.8mb 49f
7:00 2 3 mph 1020.8mb 49f
6:54 3 5 mph 1020.8mb 49f
6:48 5 7 mph 1020.8mb 49f
6:42 7 9 mph 1021mb 49f
6:36 8 9 mph 1021mb 50f
6:30 7 10 mph 1020.9mb 50f
6:24 8 9 mph 1021mb 50f
6:18 6 9 mph 1021mb 50f
6:12 8 10 mph 1021.2mb 50f
6:06 10 14 mph 1021.2mb 50f
6:00 6 8 mph 1020.9mb 50f
5:54 5 6 mph 1020.7mb 50f
5:48 2 3 mph 1020.7mb 50f
5:42 1 2 mph 1020.7mb 50f
5:36 2 3 mph 1020.6mb 50f
5:30 1 3 mph 1020.6mb 50f
5:24 5 7 mph 1020.6mb 50f
5:18 6 7 mph 1020.5mb 50f
5:12 5 7 mph 1020.5mb 51f
5:06 3 5 mph 1020.6mb 51f
5:00 5 7 mph 1020.6mb 51f
4:54 6 7 mph 1020.6mb 51f
4:48 8 13 mph 1020.5mb 51f
4:42 9 13 mph 1020.5mb 51f
4:36 10 14 mph 1020.5mb 51f
4:30 9 14 mph 1020.4mb 51f
4:24 13 16 mph 1020.2mb 51f
4:18 10 14 mph 1020.2mb 51f
4:12 11 14 mph 1020.2mb 52f
4:06 13 16 mph 1020.3mb 52f
4:00 11 15 mph 1020.3mb 52f
3:54 15 20 mph 1020.3mb 53f
3:48 13 15 mph 1020.4mb 53f
3:42 11 15 mph 1020.4mb 54f
3:36 10 13 mph 1020.3mb 54f
3:30 9 11 mph 1020.3mb 55f
3:24 8 11 mph 1020.1mb 55f
3:18 7 9 mph 1020mb 55f
3:12 7 9 mph 1020mb 56f
3:06 7 9 mph 1019.9mb 53f
3:00 9 10 mph 1020mb 52f
2:54 10
mph
1019.9mb 52f
2:48 11 13 mph 1019.8mb 53f
2:42 10 11 mph 1019.8mb 53f
2:36 9 10 mph 1019.7mb 53f
2:30 10
mph
1019.7mb 52f
2:24 11
mph
1019.8mb 52f
2:18 11 13 mph 1019.8mb 52f
2:12 11 13 mph 1019.8mb 52f
2:06 11 13 mph 1019.8mb 53f
2:00 10 11 mph 1019.9mb 53f
1:54 8 9 mph 1019.9mb 54f
1:48 9 11 mph 1019.8mb 53f
1:42 13 14 mph 1019.8mb 53f
1:36 9 10 mph 1019.8mb 53f
1:30 8 9 mph 1019.7mb 53f
1:24 8 9 mph 1019.7mb 52f
1:18 8 9 mph 1019.8mb 52f
1:12 7 8 mph 1019.9mb 52f
1:06 9 10 mph 1019.9mb 51f
1:00 9 10 mph 1020.1mb 51f
12:54 10 11 mph 1020.1mb 51f
12:48 9 10 mph 1020mb 50f
12:42 9 10 mph 1020mb 50f
12:36 10 11 mph 1020.1mb 50f
12:30 11 13 mph 1020.1mb 50f
12:24 11 14 mph 1020.2mb 50f
12:18 10 11 mph 1020.4mb 49f
12:12 10 11 mph 1020.4mb 49f
12:06 11 13 mph 1020.4mb 49f
12:00 10 11 mph 1020.4mb 49f
11:54 11 13 mph 1020.7mb 48f
11:48 13 14 mph 1020.8mb 48f
11:42 11 13 mph 1020.9mb 48f
11:36 11 13 mph 1020.9mb 48f
11:24 11 13 mph 1020.8mb 48f
11:18 14 15 mph 1020.9mb 48f
11:12 13 15 mph 1020.9mb 48f
11:06 13 14 mph 1020.9mb 47f
11:00 13 14 mph 1021mb 47f
10:54 13 16 mph 1021mb 47f
10:48 13 14 mph 1021mb 47f
10:42 13 15 mph 1021.2mb 47f
10:36 14 15 mph 1021.3mb 47f
10:30 15 17 mph 1021.1mb 47f
10:24 17 21 mph 1021.2mb 47f
10:18 17 20 mph 1021.2mb 47f
10:12 17 18 mph 1021.1mb 47f
10:06 17 20 mph 1021.4mb 47f
10:00 18 20 mph 1021.4mb 46f
9:54 16 20 mph 1021.3mb 46f
9:48 17 18 mph 1021.5mb 46f
9:42 18 20 mph 1021.7mb 47f
9:36 18 21 mph 1021.5mb 46f
9:30 18 21 mph 1021.3mb 46f
9:24 17 20 mph 1021.3mb 46f
9:18 17 20 mph 1021.3mb 46f
9:12 16 18 mph 1021.1mb 46f
9:06 18 21 mph 1021mb 46f
9:00 18 21 mph 1021.2mb 46f
8:54 18 21 mph 1021.4mb 46f
8:48 17 20 mph 1021.3mb 46f
8:42 17 20 mph 1021.2mb 46f
8:36 18 21 mph 1021.3mb 47f
8:30 18 21 mph 1021.1mb 47f
8:24 17 18 mph 1021mb 46f
8:18 16 18 mph 1021.1mb 46f
8:12 17 20 mph 1021.1mb 46f
8:06 17 20 mph 1021.1mb 46f
8:00 17 18 mph 1021.1mb 46f
7:54 16 18 mph 1021.2mb 46f
7:48 16 18 mph 1021.1mb 47f
7:42 15 18 mph 1021mb 46f
7:36 15 18 mph 1021mb 46f
7:30 13 15 mph 1021.1mb 46f
7:24 10 13 mph 1021mb 46f
7:18 8 11 mph 1020.9mb 46f
7:12 11 16 mph 1021mb 46f
7:06 13 17 mph 1021.1mb 46f
7:00 14 16 mph 1020.8mb 46f
6:54 11 13 mph 1020.6mb 46f
6:48 13 17 mph 1020.5mb 46f
6:42 13 17 mph 1020.3mb 46f
6:36 11 16 mph 1020.4mb 46f
6:30 14 20 mph 1020.3mb 46f
6:24 17 20 mph 1020.3mb 46f
6:18 17 18 mph 1020.2mb 46f
6:12 17 21 mph 1020.2mb 46f
6:06 17 22 mph 1020.1mb 46f
6:00 18 21 mph 1020mb 46f
5:54 21 24 mph 1019.9mb 46f
5:48 21 23 mph 1020mb 46f
5:42 21 23 mph 1019.9mb 46f
5:36 20 24 mph 1019.9mb 46f
5:30 22 25 mph 1019.8mb 46f
5:24 22 25 mph 1019.9mb 46f
5:18 20 22 mph 1019.9mb 46f
5:12 17 21 mph 1019.8mb 46f
5:06 17 20 mph 1019.8mb 46f
5:00 17 21 mph 1019.8mb 46f
4:54 18 21 mph 1019.9mb 46f
4:48 16 18 mph 1019.9mb 46f
4:42 16 20 mph 1019.9mb 46f
4:36 14 17 mph 1020mb 46f
4:30 15 18 mph 1020.1mb 46f
4:24 17 20 mph 1020mb 46f
4:18 15 17 mph 1020mb 46f
4:12 14 16 mph 1020mb 46f
4:06 14 16 mph 1020.1mb 46f
4:00 14 15 mph 1020mb 46f
3:54 16 18 mph 1019.9mb 46f
3:48 16 18 mph 1019.9mb 46f
3:42 16 18 mph 1020.1mb 46f
3:36 16 20 mph 1019.9mb 46f
3:30 18 21 mph 1019.8mb 46f
3:24 18 23 mph 1019.7mb 46f
3:18 18 20 mph 1019.7mb 46f
3:12 20 22 mph 1019.5mb 46f
3:06 20 22 mph 1019.6mb 46f
3:00 20 22 mph 1019.5mb 46f